createdAt,value
2022-12-29T00:00:12.101Z,98596.73
2022-12-29T00:03:02.906Z,98596.08
2022-12-29T00:05:31.188Z,98598.13
2022-12-29T00:07:59.386Z,98594.29
2022-12-29T00:10:27.668Z,98595.93
2022-12-29T00:13:14.443Z,98588.61
2022-12-29T00:15:42.637Z,98588.39
2022-12-29T00:18:10.677Z,98584.70
2022-12-29T00:20:58.230Z,98583.02
2022-12-29T00:24:02.026Z,98587.84
2022-12-29T00:26:49.044Z,98587.92
2022-12-29T00:29:35.923Z,98589.83
2022-12-29T00:32:24.611Z,98590.32
2022-12-29T00:35:11.042Z,98590.05
2022-12-29T00:38:04.482Z,98593.20
2022-12-29T00:40:51.306Z,98590.36
2022-12-29T00:43:37.803Z,98593.91
2022-12-29T00:46:05.825Z,98600.42
2022-12-29T00:48:52.481Z,98598.88
2022-12-29T00:51:20.859Z,98597.34
2022-12-29T00:53:49.240Z,98593.86
2022-12-29T00:56:17.612Z,98598.96
2022-12-29T00:58:46.405Z,98603.19
2022-12-29T01:01:14.894Z,98599.35
2022-12-29T01:03:43.169Z,98591.06
2022-12-29T01:06:12.502Z,98596.77
2022-12-29T01:08:40.553Z,98594.32
2022-12-29T01:11:11.367Z,98592.04
2022-12-29T01:13:40.062Z,98585.83
2022-12-29T01:16:08.101Z,98580.02
2022-12-29T01:18:36.808Z,98581.54
2022-12-29T01:21:06.478Z,98581.17
2022-12-29T01:23:35.212Z,98581.41
2022-12-29T01:26:14.645Z,98578.51
2022-12-29T01:28:43.288Z,98575.19
2022-12-29T01:31:13.676Z,98572.50
2022-12-29T01:33:43.323Z,98573.54
2022-12-29T01:36:16.294Z,98570.34
2022-12-29T01:38:45.342Z,98570.71
2022-12-29T01:41:15.463Z,98570.63
2022-12-29T01:44:11.247Z,98571.70
2022-12-29T01:46:41.977Z,98564.31
2022-12-29T01:49:28.080Z,98558.94
2022-12-29T01:52:02.082Z,98554.77
2022-12-29T01:54:38.094Z,98555.48
2022-12-29T01:57:09.128Z,98557.31
2022-12-29T01:59:41.835Z,98555.51
2022-12-29T02:02:13.073Z,98551.48
2022-12-29T02:04:42.080Z,98550.23
2022-12-29T02:07:15.448Z,98547.02
2022-12-29T02:09:43.923Z,98543.76
2022-12-29T02:12:12.504Z,98544.02
2022-12-29T02:14:40.580Z,98543.45
2022-12-29T02:17:21.371Z,98539.54
2022-12-29T02:20:05.097Z,98535.44
2022-12-29T02:22:59.383Z,98536.95
2022-12-29T02:25:42.433Z,98537.05
2022-12-29T02:28:48.677Z,98539.98
2022-12-29T02:31:30.901Z,98535.84
2022-12-29T02:34:11.069Z,98537.54
2022-12-29T02:37:02.091Z,98542.64
2022-12-29T02:39:45.082Z,98540.94
2022-12-29T02:42:48.958Z,98545.08
2022-12-29T02:45:20.133Z,98538.23
2022-12-29T02:47:53.195Z,98539.20
2022-12-29T02:50:28.421Z,98541.67
2022-12-29T02:53:01.710Z,98540.11
2022-12-29T02:55:29.876Z,98535.48
2022-12-29T02:58:10.255Z,98535.40
2022-12-29T03:01:03.552Z,98533.81
2022-12-29T03:04:00.369Z,98530.30
2022-12-29T03:06:37.362Z,98538.13
2022-12-29T03:09:27.030Z,98541.58
2022-12-29T03:12:17.232Z,98547.63
2022-12-29T03:15:30.751Z,98548.70
2022-12-29T03:18:06.308Z,98548.33
2022-12-29T03:20:44.851Z,98554.15
2022-12-29T03:23:14.735Z,98557.48
2022-12-29T03:25:48.406Z,98559.23
2022-12-29T03:28:41.001Z,98553.38
2022-12-29T03:31:11.513Z,98551.15
2022-12-29T03:33:42.962Z,98552.50
2022-12-29T03:36:13.727Z,98549.84
2022-12-29T03:38:49.764Z,98550.59
2022-12-29T03:41:22.337Z,98551.84
2022-12-29T03:43:50.506Z,98556.38
2022-12-29T03:46:19.551Z,98560.59
2022-12-29T03:48:48.695Z,98560.60
2022-12-29T03:51:17.046Z,98555.73
2022-12-29T03:53:47.233Z,98559.55
2022-12-29T03:56:15.372Z,98558.83
2022-12-29T03:58:44.106Z,98559.73
2022-12-29T04:01:17.195Z,98559.41
2022-12-29T04:03:46.782Z,98556.84
2022-12-29T04:06:15.029Z,98551.81
2022-12-29T04:08:51.087Z,98547.12
2022-12-29T04:11:19.467Z,98552.66
2022-12-29T04:13:47.956Z,98553.48
2022-12-29T04:16:22.541Z,98554.27
2022-12-29T04:18:50.985Z,98552.65
2022-12-29T04:21:19.318Z,98554.21
2022-12-29T04:23:47.503Z,98552.96
2022-12-29T04:26:17.299Z,98552.92
2022-12-29T04:29:03.993Z,98547.70
2022-12-29T04:31:42.297Z,98547.04
2022-12-29T04:34:10.649Z,98544.70
2022-12-29T04:36:40.751Z,98545.56
2022-12-29T04:39:09.591Z,98547.34
2022-12-29T04:41:38.793Z,98548.87
2022-12-29T04:44:09.108Z,98550.21
2022-12-29T04:46:57.317Z,98553.73
2022-12-29T04:49:52.421Z,98545.87
2022-12-29T04:52:42.094Z,98539.48
2022-12-29T04:55:12.814Z,98536.60
2022-12-29T04:57:42.125Z,98535.81
2022-12-29T05:00:14.682Z,98537.95
2022-12-29T05:02:43.120Z,98537.36
2022-12-29T05:05:11.380Z,98533.66
2022-12-29T05:07:43.467Z,98533.59
2022-12-29T05:10:12.303Z,98534.36
2022-12-29T05:12:40.801Z,98524.89
2022-12-29T05:15:10.159Z,98532.34
2022-12-29T05:17:38.908Z,98533.29
2022-12-29T05:20:09.723Z,98537.29
2022-12-29T05:22:38.410Z,98541.66
2022-12-29T05:25:08.004Z,98548.84
2022-12-29T05:27:46.383Z,98547.09
2022-12-29T05:30:23.302Z,98546.20
2022-12-29T05:32:51.380Z,98547.10
2022-12-29T05:35:19.750Z,98552.71
2022-12-29T05:37:47.927Z,98556.55
2022-12-29T05:40:16.365Z,98562.91
2022-12-29T05:42:45.898Z,98558.31
2022-12-29T05:45:37.744Z,98559.97
2022-12-29T05:48:38.102Z,98558.59
2022-12-29T05:51:38.660Z,98555.05
2022-12-29T05:54:08.721Z,98556.05
2022-12-29T05:56:37.114Z,98557.85
2022-12-29T05:59:05.158Z,98557.28
2022-12-29T06:01:34.495Z,98562.98
2022-12-29T06:04:02.825Z,98571.96
2022-12-29T06:06:31.094Z,98571.15
2022-12-29T06:08:59.657Z,98570.85
2022-12-29T06:11:28.006Z,98577.88
2022-12-29T06:13:58.563Z,98583.70
2022-12-29T06:16:26.761Z,98589.34
2022-12-29T06:18:59.473Z,98599.38
2022-12-29T06:21:27.640Z,98605.69
2022-12-29T06:23:55.829Z,98609.40
2022-12-29T06:26:24.298Z,98616.27
2022-12-29T06:28:52.985Z,98611.80
2022-12-29T06:31:21.219Z,98610.82
2022-12-29T06:33:50.472Z,98615.40
2022-12-29T06:36:19.869Z,98615.20
2022-12-29T06:38:48.346Z,98613.73
2022-12-29T06:41:16.495Z,98618.88
2022-12-29T06:44:04.316Z,98619.29
2022-12-29T06:46:51.337Z,98614.23
2022-12-29T06:49:19.397Z,98617.58
2022-12-29T06:51:47.928Z,98621.58
2022-12-29T06:54:16.090Z,98622.14
2022-12-29T06:56:45.100Z,98621.70
2022-12-29T06:59:13.262Z,98616.04
2022-12-29T07:01:41.528Z,98615.95
2022-12-29T07:04:09.814Z,98612.27
2022-12-29T07:06:37.916Z,98617.08
2022-12-29T07:09:05.852Z,98620.10
2022-12-29T07:11:34.340Z,98617.36
2022-12-29T07:14:03.432Z,98607.89
2022-12-29T07:16:31.663Z,98605.59
2022-12-29T07:19:00.672Z,98609.86
2022-12-29T07:21:28.900Z,98609.27
2022-12-29T07:23:57.466Z,98610.88
2022-12-29T07:26:25.633Z,98608.84
2022-12-29T07:28:53.702Z,98608.94
2022-12-29T07:31:25.012Z,98606.15
2022-12-29T07:33:53.330Z,98605.35
2022-12-29T07:36:25.269Z,98599.23
2022-12-29T07:39:00.879Z,98606.26
2022-12-29T07:41:30.511Z,98600.58
2022-12-29T07:44:04.795Z,98599.54
2022-12-29T07:46:53.900Z,98599.02
2022-12-29T07:49:25.459Z,98596.27
2022-12-29T07:51:54.285Z,98590.34
2022-12-29T07:54:24.073Z,98593.14
2022-12-29T07:56:52.765Z,98600.01
2022-12-29T07:59:20.793Z,98595.95
2022-12-29T08:01:49.393Z,98592.63
2022-12-29T08:04:17.489Z,98588.48
2022-12-29T08:06:46.682Z,98583.55
2022-12-29T08:09:21.486Z,98577.99
2022-12-29T08:11:50.714Z,98581.70
2022-12-29T08:14:20.429Z,98582.75
2022-12-29T08:16:48.647Z,98580.81
2022-12-29T08:19:16.764Z,98574.34
2022-12-29T08:21:45.065Z,98573.77
2022-12-29T08:24:13.467Z,98574.94
2022-12-29T08:26:41.528Z,98572.35
2022-12-29T08:29:09.692Z,98570.63
2022-12-29T08:31:38.251Z,98570.82
2022-12-29T08:34:06.881Z,98570.69
2022-12-29T08:36:35.064Z,98574.98
2022-12-29T08:39:06.268Z,98575.09
2022-12-29T08:41:34.573Z,98569.74
2022-12-29T08:44:02.658Z,98570.25
2022-12-29T08:46:30.825Z,98565.95
2022-12-29T08:49:00.317Z,98566.20
2022-12-29T08:51:28.644Z,98568.36
2022-12-29T08:53:56.743Z,98577.82
2022-12-29T08:56:24.918Z,98572.58
2022-12-29T08:58:54.094Z,98565.42
2022-12-29T09:01:24.206Z,98563.19
2022-12-29T09:06:41.045Z,98555.40
2022-12-29T09:09:09.177Z,98548.27
2022-12-29T09:11:37.697Z,98542.05
2022-12-29T09:14:06.121Z,98530.91
2022-12-29T09:16:35.424Z,98526.49
2022-12-29T09:19:03.797Z,98528.83
2022-12-29T09:21:32.462Z,98526.02
2022-12-29T09:24:00.530Z,98521.09
2022-12-29T09:26:28.623Z,98511.39
2022-12-29T09:28:58.145Z,98510.05
2022-12-29T09:31:26.251Z,98511.88
2022-12-29T09:33:54.535Z,98510.56
2022-12-29T09:36:22.552Z,98518.00
2022-12-29T09:38:50.549Z,98514.89
2022-12-29T09:41:27.878Z,98507.27
2022-12-29T09:44:11.433Z,98505.16
2022-12-29T09:46:46.415Z,98496.52
2022-12-29T09:49:40.892Z,98488.65
2022-12-29T09:52:39.425Z,98487.13
2022-12-29T09:55:14.510Z,98490.35
2022-12-29T09:57:55.944Z,98490.07
2022-12-29T10:00:35.058Z,98492.09
2022-12-29T10:03:15.781Z,98491.58
2022-12-29T10:06:15.334Z,98488.83
2022-12-29T10:08:51.126Z,98489.87
2022-12-29T10:11:37.841Z,98492.22
2022-12-29T10:14:07.590Z,98494.27
2022-12-29T10:16:59.346Z,98498.67
2022-12-29T10:20:09.492Z,98495.88
2022-12-29T10:22:56.608Z,98489.08
2022-12-29T10:25:28.410Z,98491.58
2022-12-29T10:28:01.641Z,98487.67
2022-12-29T10:30:30.103Z,98491.02
2022-12-29T10:33:06.911Z,98489.74
2022-12-29T10:35:40.138Z,98487.55
2022-12-29T10:38:17.285Z,98487.98
2022-12-29T10:40:54.988Z,98487.06
2022-12-29T10:43:30.318Z,98485.23
2022-12-29T10:46:04.176Z,98487.16
2022-12-29T10:48:35.683Z,98484.36
2022-12-29T10:51:06.746Z,98476.84
2022-12-29T10:53:41.549Z,98467.95
2022-12-29T10:56:21.619Z,98467.89
2022-12-29T10:58:50.916Z,98470.91
2022-12-29T11:01:19.551Z,98471.54
2022-12-29T11:03:55.351Z,98467.46
2022-12-29T11:06:28.089Z,98462.98
2022-12-29T11:09:12.684Z,98461.83
2022-12-29T11:11:40.744Z,98459.89
2022-12-29T11:14:18.995Z,98459.94
2022-12-29T11:16:58.425Z,98454.05
2022-12-29T11:19:29.160Z,98442.70
2022-12-29T11:22:21.394Z,98444.13
2022-12-29T11:24:51.613Z,98435.02
2022-12-29T11:27:24.500Z,98438.65
2022-12-29T11:29:54.479Z,98438.73
2022-12-29T11:32:29.132Z,98434.39
2022-12-29T11:34:59.822Z,98432.67
2022-12-29T11:37:35.754Z,98431.11
2022-12-29T11:40:17.218Z,98430.36
2022-12-29T11:42:52.358Z,98424.37
2022-12-29T11:45:25.815Z,98420.25
2022-12-29T11:48:16.262Z,98413.70
2022-12-29T11:50:53.634Z,98413.08
2022-12-29T11:53:44.380Z,98413.63
2022-12-29T11:56:16.034Z,98411.34
2022-12-29T11:58:44.892Z,98410.05
2022-12-29T12:01:35.025Z,98410.23
2022-12-29T12:04:15.375Z,98410.04
2022-12-29T12:06:58.092Z,98416.06
2022-12-29T12:09:38.427Z,98416.77
2022-12-29T12:12:07.029Z,98414.61
2022-12-29T12:14:44.958Z,98404.44
2022-12-29T12:17:28.542Z,98394.39
2022-12-29T12:20:16.156Z,98393.48
2022-12-29T12:22:51.911Z,98386.83
2022-12-29T12:25:25.209Z,98383.55
2022-12-29T12:27:59.395Z,98381.34
2022-12-29T12:30:31.496Z,98378.02
2022-12-29T12:33:15.574Z,98378.20
2022-12-29T12:36:08.598Z,98374.94
2022-12-29T12:38:56.367Z,98368.92
2022-12-29T12:41:59.730Z,98365.73
2022-12-29T12:44:38.088Z,98366.07
2022-12-29T12:47:24.623Z,98365.73
2022-12-29T12:50:17.867Z,98366.42
2022-12-29T12:52:45.842Z,98369.92
2022-12-29T12:55:49.333Z,98364.22
2022-12-29T12:58:32.256Z,98367.65
2022-12-29T13:01:21.500Z,98373.02
2022-12-29T13:04:20.450Z,98373.82
2022-12-29T13:07:00.749Z,98374.27
2022-12-29T13:09:42.195Z,98372.68
2022-12-29T13:12:26.572Z,98375.92
2022-12-29T13:15:09.912Z,98384.95
2022-12-29T13:18:02.245Z,98387.64
2022-12-29T13:20:37.769Z,98386.77
2022-12-29T13:23:18.876Z,98385.91
2022-12-29T13:26:01.016Z,98391.33
2022-12-29T13:28:53.345Z,98395.23
2022-12-29T13:31:33.628Z,98387.70
2022-12-29T13:34:11.149Z,98384.76
2022-12-29T13:36:45.463Z,98381.59
2022-12-29T13:39:27.774Z,98378.42
2022-12-29T13:41:57.077Z,98379.90
2022-12-29T13:44:37.232Z,98379.14
2022-12-29T13:47:35.385Z,98375.91
2022-12-29T13:50:05.589Z,98374.27
2022-12-29T13:52:39.386Z,98380.91
2022-12-29T13:55:28.192Z,98385.12
2022-12-29T13:58:33.621Z,98387.73
2022-12-29T14:01:03.615Z,98382.27
2022-12-29T14:03:50.092Z,98389.30
2022-12-29T14:06:20.942Z,98392.61
2022-12-29T14:08:49.770Z,98390.05
2022-12-29T14:11:19.250Z,98389.73
2022-12-29T14:13:48.153Z,98392.68
2022-12-29T14:16:35.212Z,98389.20
2022-12-29T14:19:33.068Z,98387.73
2022-12-29T14:22:04.515Z,98387.81
2022-12-29T14:24:32.522Z,98385.56
2022-12-29T14:27:00.666Z,98382.26
2022-12-29T14:29:31.805Z,98383.23
2022-12-29T14:31:59.817Z,98387.58
2022-12-29T14:34:39.832Z,98386.74
2022-12-29T14:37:24.612Z,98388.20
2022-12-29T14:40:07.871Z,98379.36
2022-12-29T14:42:36.467Z,98375.85
2022-12-29T14:45:13.854Z,98376.06
2022-12-29T14:47:42.851Z,98369.59
2022-12-29T14:50:23.577Z,98371.66
2022-12-29T14:53:03.485Z,98373.65
2022-12-29T14:55:47.488Z,98367.02
2022-12-29T14:58:23.493Z,98370.86
2022-12-29T15:00:51.692Z,98371.61
2022-12-29T15:03:25.425Z,98369.80
2022-12-29T15:05:56.753Z,98367.52
2022-12-29T15:08:31.991Z,98363.15
2022-12-29T15:11:07.647Z,98363.38
2022-12-29T15:13:37.891Z,98361.14
2022-12-29T15:16:06.975Z,98357.01
2022-12-29T15:18:35.700Z,98354.60
2022-12-29T15:21:06.089Z,98353.56
2022-12-29T15:23:36.145Z,98351.61
2022-12-29T15:26:09.084Z,98352.61
2022-12-29T15:28:42.522Z,98348.52
2022-12-29T15:31:29.967Z,98354.94
2022-12-29T15:34:12.322Z,98352.55
2022-12-29T15:36:42.512Z,98356.19
2022-12-29T15:39:21.509Z,98354.42
2022-12-29T15:42:03.415Z,98354.70
2022-12-29T15:44:41.488Z,98353.69
2022-12-29T15:47:24.522Z,98353.58
2022-12-29T15:49:57.507Z,98354.94
2022-12-29T15:52:25.685Z,98357.95
2022-12-29T15:54:54.590Z,98358.46
2022-12-29T15:57:26.501Z,98356.13
2022-12-29T15:59:55.091Z,98362.80
2022-12-29T16:02:25.082Z,98368.15
2022-12-29T16:07:53.524Z,98367.16
2022-12-29T16:10:57.442Z,98364.63
2022-12-29T16:13:39.792Z,98373.02
2022-12-29T16:16:24.844Z,98371.57
2022-12-29T16:18:57.654Z,98366.76
2022-12-29T16:21:33.203Z,98367.52
2022-12-29T16:24:06.372Z,98371.11
2022-12-29T16:26:34.439Z,98378.63
2022-12-29T16:29:05.453Z,98382.02
2022-12-29T16:31:49.083Z,98379.81
2022-12-29T16:34:41.129Z,98379.57
2022-12-29T16:37:32.027Z,98378.47
2022-12-29T16:40:27.248Z,98383.37
2022-12-29T16:43:00.414Z,98381.20
2022-12-29T16:45:54.684Z,98373.50
2022-12-29T16:48:27.431Z,98370.32
2022-12-29T16:51:29.725Z,98366.50
2022-12-29T16:53:57.885Z,98362.65
2022-12-29T16:56:28.966Z,98373.33
2022-12-29T16:59:06.221Z,98373.16
2022-12-29T17:01:39.825Z,98368.20
2022-12-29T17:04:12.548Z,98362.94
2022-12-29T17:06:41.244Z,98364.45
2022-12-29T17:09:27.626Z,98364.14
2022-12-29T17:12:05.342Z,98358.52
2022-12-29T17:14:47.260Z,98357.83
2022-12-29T17:17:22.489Z,98362.83
2022-12-29T17:19:53.087Z,98357.41
2022-12-29T17:22:27.086Z,98349.13
2022-12-29T17:24:57.068Z,98339.63
2022-12-29T17:27:26.396Z,98338.17
2022-12-29T17:29:57.983Z,98341.70
2022-12-29T17:32:26.873Z,98340.41
2022-12-29T17:34:55.101Z,98347.81
2022-12-29T17:37:30.463Z,98344.52
2022-12-29T17:39:58.678Z,98332.44
2022-12-29T17:42:27.168Z,98328.26
2022-12-29T17:44:55.794Z,98337.92
2022-12-29T17:47:23.943Z,98333.92
2022-12-29T17:49:52.047Z,98327.61
2022-12-29T17:52:20.613Z,98327.32
2022-12-29T17:54:52.557Z,98324.13
2022-12-29T17:57:21.489Z,98333.56
2022-12-29T17:59:50.083Z,98342.89
2022-12-29T18:02:27.157Z,98327.63
2022-12-29T18:04:55.549Z,98330.96
2022-12-29T18:07:30.986Z,98329.16
2022-12-29T18:10:02.250Z,98329.80
2022-12-29T18:12:50.499Z,98317.86
2022-12-29T18:15:27.776Z,98309.27
2022-12-29T18:18:13.025Z,98314.48
2022-12-29T18:20:43.173Z,98319.64
2022-12-29T18:23:29.179Z,98328.02
2022-12-29T18:26:00.768Z,98331.34
2022-12-29T18:28:29.324Z,98333.48
2022-12-29T18:30:59.408Z,98336.50
2022-12-29T18:33:28.942Z,98331.65
2022-12-29T18:36:01.111Z,98329.29
2022-12-29T18:38:29.935Z,98338.02
2022-12-29T18:40:58.753Z,98333.56
2022-12-29T18:43:26.849Z,98328.27
2022-12-29T18:45:54.964Z,98331.80
2022-12-29T18:48:23.070Z,98332.29
2022-12-29T18:50:52.035Z,98331.71
2022-12-29T18:53:23.611Z,98324.27
2022-12-29T18:55:52.511Z,98321.74
2022-12-29T18:58:20.787Z,98317.48
2022-12-29T19:00:49.032Z,98307.63
2022-12-29T19:03:18.876Z,98306.34
2022-12-29T19:05:47.984Z,98309.03
2022-12-29T19:08:16.375Z,98315.80
2022-12-29T19:10:45.258Z,98322.26
2022-12-29T19:13:19.523Z,98317.46
2022-12-29T19:15:47.784Z,98309.39
2022-12-29T19:21:07.991Z,98299.04
2022-12-29T19:23:35.965Z,98300.61
2022-12-29T19:26:04.144Z,98295.48
2022-12-29T19:28:32.261Z,98290.96
2022-12-29T19:31:02.023Z,98296.45
2022-12-29T19:33:30.571Z,98294.09
2022-12-29T19:36:01.391Z,98302.20
2022-12-29T19:38:29.956Z,98301.67
2022-12-29T19:40:58.758Z,98305.38
2022-12-29T19:43:29.121Z,98298.23
2022-12-29T19:45:57.366Z,98295.98
2022-12-29T19:48:25.549Z,98298.46
2022-12-29T19:50:53.618Z,98298.59
2022-12-29T19:53:21.894Z,98295.98
2022-12-29T19:55:50.176Z,98296.21
2022-12-29T19:58:19.456Z,98293.66
2022-12-29T20:00:47.540Z,98289.93
2022-12-29T20:03:15.678Z,98289.08
2022-12-29T20:05:49.133Z,98281.90
2022-12-29T20:08:17.144Z,98265.83
2022-12-29T20:10:45.258Z,98262.69
2022-12-29T20:13:13.427Z,98267.79
2022-12-29T20:15:44.270Z,98262.42
2022-12-29T20:18:14.097Z,98269.95
2022-12-29T20:20:43.130Z,98272.69
2022-12-29T20:23:11.395Z,98268.98
2022-12-29T20:25:47.469Z,98260.42
2022-12-29T20:28:17.197Z,98257.09
2022-12-29T20:30:45.582Z,98254.79
2022-12-29T20:33:13.987Z,98253.29
2022-12-29T20:35:42.328Z,98257.13
2022-12-29T20:38:10.614Z,98255.23
2022-12-29T20:40:45.903Z,98258.47
2022-12-29T20:43:15.809Z,98252.04
2022-12-29T20:45:43.891Z,98251.25
2022-12-29T20:48:12.334Z,98252.27
2022-12-29T20:50:40.447Z,98247.68
2022-12-29T20:53:08.647Z,98243.56
2022-12-29T20:55:40.827Z,98247.16
2022-12-29T20:58:26.003Z,98250.69
2022-12-29T21:00:55.271Z,98259.59
2022-12-29T21:03:24.788Z,98256.64
2022-12-29T21:05:54.005Z,98257.73
2022-12-29T21:08:23.669Z,98265.23
2022-12-29T21:10:51.999Z,98271.55
2022-12-29T21:13:20.117Z,98271.47
2022-12-29T21:15:48.626Z,98268.90
2022-12-29T21:18:16.559Z,98260.69
2022-12-29T21:20:44.828Z,98263.01
2022-12-29T21:23:12.915Z,98264.70
2022-12-29T21:25:43.475Z,98269.22
2022-12-29T21:28:14.258Z,98274.77
2022-12-29T21:30:42.347Z,98271.29
2022-12-29T21:33:10.989Z,98264.22
2022-12-29T21:35:39.119Z,98261.93
2022-12-29T21:38:07.738Z,98262.83
2022-12-29T21:40:37.767Z,98259.02
2022-12-29T21:43:07.260Z,98248.30
2022-12-29T21:45:35.600Z,98241.55
2022-12-29T21:48:24.328Z,98238.16
2022-12-29T21:51:17.561Z,98225.48
2022-12-29T21:53:45.739Z,98222.80
2022-12-29T21:56:15.927Z,98224.75
2022-12-29T21:59:05.034Z,98230.91
2022-12-29T22:01:54.383Z,98234.69
2022-12-29T22:04:43.509Z,98233.14
2022-12-29T22:07:31.468Z,98230.61
2022-12-29T22:10:18.242Z,98227.32
2022-12-29T22:13:01.842Z,98222.77
2022-12-29T22:15:34.523Z,98224.81
2022-12-29T22:18:03.944Z,98220.16
2022-12-29T22:20:35.220Z,98228.02
2022-12-29T22:23:04.090Z,98229.23
2022-12-29T22:25:35.847Z,98226.41
2022-12-29T22:28:04.063Z,98216.40
2022-12-29T22:30:32.967Z,98214.15
2022-12-29T22:33:01.901Z,98228.60
2022-12-29T22:35:30.468Z,98228.98
2022-12-29T22:37:58.424Z,98218.65
2022-12-29T22:40:26.555Z,98224.90
2022-12-29T22:42:55.880Z,98221.08
2022-12-29T22:45:23.959Z,98221.44
2022-12-29T22:47:52.034Z,98214.67
2022-12-29T22:50:20.017Z,98214.83
2022-12-29T22:52:48.090Z,98219.69
2022-12-29T22:55:16.255Z,98211.50
2022-12-29T22:57:44.437Z,98213.67
2022-12-29T23:00:12.939Z,98220.35
2022-12-29T23:02:41.165Z,98227.89
2022-12-29T23:05:09.657Z,98229.67
2022-12-29T23:07:37.879Z,98227.13
2022-12-29T23:10:06.605Z,98217.29
2022-12-29T23:12:34.563Z,98216.05
2022-12-29T23:15:02.912Z,98215.54
2022-12-29T23:17:30.960Z,98219.80
2022-12-29T23:19:59.567Z,98215.80
2022-12-29T23:22:27.625Z,98205.05
2022-12-29T23:24:55.703Z,98205.13
2022-12-29T23:27:23.899Z,98209.91
2022-12-29T23:29:52.768Z,98204.80
2022-12-29T23:32:20.840Z,98211.86
2022-12-29T23:34:48.813Z,98219.24
2022-12-29T23:37:17.382Z,98216.17
2022-12-29T23:39:45.506Z,98215.66
2022-12-29T23:42:13.478Z,98212.73
2022-12-29T23:44:41.497Z,98212.48
2022-12-29T23:47:09.718Z,98220.23
2022-12-29T23:49:37.884Z,98220.26
2022-12-29T23:52:06.127Z,98216.45
2022-12-29T23:54:34.466Z,98215.09
2022-12-29T23:57:02.683Z,98208.39
2022-12-29T23:59:30.750Z,98212.95
